sensor_id;sensor_type;location;lat;lon;timestamp;P1;durP1;ratioP1;P2;durP2;ratioP2
19434;SDS011;9853;50.848;4.108;2023-04-03T00:01:15;19.93;;;9.73;;
19434;SDS011;9853;50.848;4.108;2023-04-03T00:03:19;19.73;;;9.10;;
19434;SDS011;9853;50.848;4.108;2023-04-03T00:05:23;16.63;;;8.90;;
19434;SDS011;9853;50.848;4.108;2023-04-03T00:07:24;14.97;;;8.87;;
19434;SDS011;9853;50.848;4.108;2023-04-03T00:09:25;17.37;;;8.90;;
19434;SDS011;9853;50.848;4.108;2023-04-03T00:11:26;17.43;;;8.23;;
19434;SDS011;9853;50.848;4.108;2023-04-03T00:13:30;15.10;;;8.10;;
19434;SDS011;9853;50.848;4.108;2023-04-03T00:15:31;13.43;;;7.60;;
19434;SDS011;9853;50.848;4.108;2023-04-03T00:17:35;15.33;;;7.30;;
19434;SDS011;9853;50.848;4.108;2023-04-03T00:19:36;12.13;;;6.90;;
19434;SDS011;9853;50.848;4.108;2023-04-03T00:21:37;14.30;;;7.20;;
19434;SDS011;9853;50.848;4.108;2023-04-03T00:23:38;12.57;;;7.17;;
19434;SDS011;9853;50.848;4.108;2023-04-03T00:25:39;11.80;;;7.13;;
19434;SDS011;9853;50.848;4.108;2023-04-03T00:27:40;12.27;;;7.27;;
19434;SDS011;9853;50.848;4.108;2023-04-03T00:29:41;10.50;;;7.37;;
19434;SDS011;9853;50.848;4.108;2023-04-03T00:31:42;11.87;;;7.33;;
19434;SDS011;9853;50.848;4.108;2023-04-03T00:33:43;13.30;;;7.00;;
19434;SDS011;9853;50.848;4.108;2023-04-03T00:35:44;14.80;;;6.77;;
19434;SDS011;9853;50.848;4.108;2023-04-03T00:37:45;10.43;;;6.47;;
19434;SDS011;9853;50.848;4.108;2023-04-03T00:39:53;14.87;;;6.70;;
19434;SDS011;9853;50.848;4.108;2023-04-03T00:41:54;12.30;;;6.43;;
19434;SDS011;9853;50.848;4.108;2023-04-03T00:43:57;15.33;;;7.40;;
19434;SDS011;9853;50.848;4.108;2023-04-03T00:46:06;10.57;;;6.50;;
19434;SDS011;9853;50.848;4.108;2023-04-03T00:48:08;14.03;;;6.83;;
19434;SDS011;9853;50.848;4.108;2023-04-03T00:50:13;10.17;;;6.20;;
19434;SDS011;9853;50.848;4.108;2023-04-03T00:52:21;13.43;;;6.73;;
19434;SDS011;9853;50.848;4.108;2023-04-03T00:54:28;13.97;;;6.70;;
19434;SDS011;9853;50.848;4.108;2023-04-03T00:56:38;14.90;;;7.53;;
19434;SDS011;9853;50.848;4.108;2023-04-03T00:58:41;21.43;;;9.50;;
19434;SDS011;9853;50.848;4.108;2023-04-03T01:00:53;15.83;;;7.50;;
19434;SDS011;9853;50.848;4.108;2023-04-03T01:03:01;18.43;;;8.70;;
19434;SDS011;9853;50.848;4.108;2023-04-03T01:05:15;13.63;;;6.60;;
19434;SDS011;9853;50.848;4.108;2023-04-03T01:07:24;14.17;;;6.97;;
19434;SDS011;9853;50.848;4.108;2023-04-03T01:09:29;25.77;;;9.53;;
19434;SDS011;9853;50.848;4.108;2023-04-03T01:11:30;24.47;;;9.30;;
19434;SDS011;9853;50.848;4.108;2023-04-03T01:13:33;19.13;;;8.57;;
19434;SDS011;9853;50.848;4.108;2023-04-03T01:15:35;17.63;;;7.77;;
19434;SDS011;9853;50.848;4.108;2023-04-03T01:17:40;22.57;;;9.03;;
19434;SDS011;9853;50.848;4.108;2023-04-03T01:19:42;14.30;;;7.43;;
19434;SDS011;9853;50.848;4.108;2023-04-03T01:24:22;18.80;;;8.33;;
19434;SDS011;9853;50.848;4.108;2023-04-03T01:26:34;13.53;;;7.23;;
19434;SDS011;9853;50.848;4.108;2023-04-03T01:28:36;11.97;;;7.10;;
19434;SDS011;9853;50.848;4.108;2023-04-03T01:30:43;18.37;;;6.80;;
19434;SDS011;9853;50.848;4.108;2023-04-03T01:32:45;9.87;;;5.83;;
19434;SDS011;9853;50.848;4.108;2023-04-03T01:34:48;13.77;;;6.17;;
19434;SDS011;9853;50.848;4.108;2023-04-03T01:36:49;9.80;;;6.20;;
19434;SDS011;9853;50.848;4.108;2023-04-03T01:38:55;13.63;;;6.60;;
19434;SDS011;9853;50.848;4.108;2023-04-03T01:40:57;12.37;;;6.30;;
19434;SDS011;9853;50.848;4.108;2023-04-03T01:43:03;12.17;;;6.47;;
19434;SDS011;9853;50.848;4.108;2023-04-03T01:45:04;13.97;;;6.37;;
19434;SDS011;9853;50.848;4.108;2023-04-03T01:47:06;10.90;;;6.03;;
19434;SDS011;9853;50.848;4.108;2023-04-03T01:49:08;13.13;;;6.57;;
19434;SDS011;9853;50.848;4.108;2023-04-03T01:51:11;11.93;;;6.87;;
19434;SDS011;9853;50.848;4.108;2023-04-03T01:53:12;17.13;;;6.67;;
19434;SDS011;9853;50.848;4.108;2023-04-03T01:55:16;11.17;;;5.73;;
19434;SDS011;9853;50.848;4.108;2023-04-03T01:57:17;13.60;;;6.50;;
19434;SDS011;9853;50.848;4.108;2023-04-03T01:59:20;12.00;;;6.30;;
19434;SDS011;9853;50.848;4.108;2023-04-03T02:01:21;10.90;;;6.73;;
19434;SDS011;9853;50.848;4.108;2023-04-03T02:03:22;10.17;;;6.27;;
19434;SDS011;9853;50.848;4.108;2023-04-03T02:05:26;9.03;;;5.67;;
19434;SDS011;9853;50.848;4.108;2023-04-03T02:07:30;10.00;;;6.00;;
19434;SDS011;9853;50.848;4.108;2023-04-03T02:09:31;12.73;;;5.63;;
19434;SDS011;9853;50.848;4.108;2023-04-03T02:11:32;10.10;;;5.90;;
19434;SDS011;9853;50.848;4.108;2023-04-03T02:13:33;13.23;;;5.73;;
19434;SDS011;9853;50.848;4.108;2023-04-03T02:15:34;13.00;;;6.30;;
19434;SDS011;9853;50.848;4.108;2023-04-03T02:17:40;10.67;;;6.27;;
19434;SDS011;9853;50.848;4.108;2023-04-03T02:19:41;10.17;;;5.67;;
19434;SDS011;9853;50.848;4.108;2023-04-03T02:21:42;11.43;;;5.60;;
19434;SDS011;9853;50.848;4.108;2023-04-03T02:23:43;12.67;;;6.13;;
19434;SDS011;9853;50.848;4.108;2023-04-03T02:25:47;8.70;;;5.43;;
19434;SDS011;9853;50.848;4.108;2023-04-03T02:27:49;13.37;;;5.47;;
19434;SDS011;9853;50.848;4.108;2023-04-03T02:29:50;13.93;;;6.00;;
19434;SDS011;9853;50.848;4.108;2023-04-03T02:31:51;9.53;;;5.50;;
19434;SDS011;9853;50.848;4.108;2023-04-03T02:33:52;14.37;;;6.07;;
19434;SDS011;9853;50.848;4.108;2023-04-03T02:35:55;11.67;;;6.30;;
19434;SDS011;9853;50.848;4.108;2023-04-03T02:37:57;10.43;;;6.13;;
19434;SDS011;9853;50.848;4.108;2023-04-03T02:39:58;11.17;;;5.77;;
19434;SDS011;9853;50.848;4.108;2023-04-03T02:42:01;9.47;;;5.57;;
19434;SDS011;9853;50.848;4.108;2023-04-03T02:44:03;11.60;;;6.17;;
19434;SDS011;9853;50.848;4.108;2023-04-03T02:46:06;10.50;;;5.30;;
19434;SDS011;9853;50.848;4.108;2023-04-03T02:48:07;11.23;;;6.00;;
19434;SDS011;9853;50.848;4.108;2023-04-03T02:50:09;12.73;;;6.00;;
19434;SDS011;9853;50.848;4.108;2023-04-03T02:52:10;7.93;;;5.47;;
19434;SDS011;9853;50.848;4.108;2023-04-03T02:54:13;12.73;;;6.60;;
19434;SDS011;9853;50.848;4.108;2023-04-03T02:56:19;12.93;;;5.77;;
19434;SDS011;9853;50.848;4.108;2023-04-03T02:58:20;10.80;;;5.90;;
19434;SDS011;9853;50.848;4.108;2023-04-03T03:00:24;12.03;;;5.70;;
19434;SDS011;9853;50.848;4.108;2023-04-03T03:02:25;10.40;;;6.20;;
19434;SDS011;9853;50.848;4.108;2023-04-03T03:04:26;12.13;;;6.37;;
19434;SDS011;9853;50.848;4.108;2023-04-03T03:06:30;12.13;;;6.20;;
19434;SDS011;9853;50.848;4.108;2023-04-03T03:08:31;9.20;;;5.67;;
19434;SDS011;9853;50.848;4.108;2023-04-03T03:10:35;11.23;;;5.70;;
19434;SDS011;9853;50.848;4.108;2023-04-03T03:12:36;11.37;;;5.87;;
19434;SDS011;9853;50.848;4.108;2023-04-03T03:14:41;9.40;;;5.57;;
19434;SDS011;9853;50.848;4.108;2023-04-03T03:16:44;13.20;;;6.07;;
19434;SDS011;9853;50.848;4.108;2023-04-03T03:18:55;10.33;;;5.97;;
19434;SDS011;9853;50.848;4.108;2023-04-03T03:20:58;11.57;;;5.87;;
19434;SDS011;9853;50.848;4.108;2023-04-03T03:23:03;8.47;;;5.63;;
19434;SDS011;9853;50.848;4.108;2023-04-03T03:25:15;10.67;;;6.00;;
19434;SDS011;9853;50.848;4.108;2023-04-03T03:27:16;12.33;;;6.03;;
19434;SDS011;9853;50.848;4.108;2023-04-03T03:29:21;11.07;;;6.70;;
19434;SDS011;9853;50.848;4.108;2023-04-03T03:31:24;9.97;;;6.20;;
19434;SDS011;9853;50.848;4.108;2023-04-03T03:33:34;11.67;;;6.23;;
19434;SDS011;9853;50.848;4.108;2023-04-03T03:35:38;11.17;;;6.33;;
19434;SDS011;9853;50.848;4.108;2023-04-03T03:37:44;10.23;;;5.43;;
19434;SDS011;9853;50.848;4.108;2023-04-03T03:39:48;14.27;;;5.93;;
19434;SDS011;9853;50.848;4.108;2023-04-03T03:41:57;14.57;;;6.97;;
19434;SDS011;9853;50.848;4.108;2023-04-03T03:44:01;10.73;;;6.40;;
19434;SDS011;9853;50.848;4.108;2023-04-03T03:46:04;12.40;;;6.33;;
19434;SDS011;9853;50.848;4.108;2023-04-03T03:48:13;14.03;;;7.07;;
19434;SDS011;9853;50.848;4.108;2023-04-03T03:50:20;9.83;;;6.30;;
19434;SDS011;9853;50.848;4.108;2023-04-03T03:52:29;13.23;;;6.57;;
19434;SDS011;9853;50.848;4.108;2023-04-03T03:54:36;11.70;;;6.73;;
19434;SDS011;9853;50.848;4.108;2023-04-03T03:56:40;12.50;;;6.37;;
19434;SDS011;9853;50.848;4.108;2023-04-03T03:58:48;9.27;;;6.03;;
19434;SDS011;9853;50.848;4.108;2023-04-03T04:00:52;12.20;;;6.77;;
19434;SDS011;9853;50.848;4.108;2023-04-03T04:02:58;14.03;;;7.23;;
19434;SDS011;9853;50.848;4.108;2023-04-03T04:05:17;12.43;;;6.93;;
19434;SDS011;9853;50.848;4.108;2023-04-03T04:07:30;11.80;;;6.77;;
19434;SDS011;9853;50.848;4.108;2023-04-03T04:09:40;16.80;;;6.53;;
19434;SDS011;9853;50.848;4.108;2023-04-03T04:11:45;13.27;;;6.70;;
19434;SDS011;9853;50.848;4.108;2023-04-03T04:13:54;11.63;;;7.20;;
19434;SDS011;9853;50.848;4.108;2023-04-03T04:15:59;14.67;;;7.07;;
19434;SDS011;9853;50.848;4.108;2023-04-03T04:18:12;13.00;;;7.27;;
19434;SDS011;9853;50.848;4.108;2023-04-03T04:20:22;10.70;;;6.40;;
19434;SDS011;9853;50.848;4.108;2023-04-03T04:22:27;19.33;;;8.00;;
19434;SDS011;9853;50.848;4.108;2023-04-03T04:24:33;13.77;;;6.87;;
19434;SDS011;9853;50.848;4.108;2023-04-03T04:26:36;14.20;;;6.93;;
19434;SDS011;9853;50.848;4.108;2023-04-03T04:28:38;13.97;;;6.93;;
19434;SDS011;9853;50.848;4.108;2023-04-03T04:30:42;9.47;;;6.13;;
19434;SDS011;9853;50.848;4.108;2023-04-03T04:32:55;13.07;;;6.37;;
19434;SDS011;9853;50.848;4.108;2023-04-03T04:34:59;10.17;;;6.33;;
19434;SDS011;9853;50.848;4.108;2023-04-03T04:37:16;11.97;;;6.73;;
19434;SDS011;9853;50.848;4.108;2023-04-03T04:39:20;10.83;;;6.07;;
19434;SDS011;9853;50.848;4.108;2023-04-03T04:41:26;13.37;;;6.80;;
19434;SDS011;9853;50.848;4.108;2023-04-03T04:43:27;12.90;;;6.73;;
19434;SDS011;9853;50.848;4.108;2023-04-03T04:45:28;11.03;;;6.70;;
19434;SDS011;9853;50.848;4.108;2023-04-03T04:47:30;13.63;;;6.83;;
19434;SDS011;9853;50.848;4.108;2023-04-03T04:49:31;10.23;;;6.80;;
19434;SDS011;9853;50.848;4.108;2023-04-03T04:51:32;16.47;;;7.03;;
19434;SDS011;9853;50.848;4.108;2023-04-03T04:53:36;19.43;;;7.20;;
19434;SDS011;9853;50.848;4.108;2023-04-03T04:55:42;14.00;;;7.60;;
19434;SDS011;9853;50.848;4.108;2023-04-03T04:57:43;13.93;;;7.70;;
19434;SDS011;9853;50.848;4.108;2023-04-03T04:59:50;13.50;;;7.27;;
19434;SDS011;9853;50.848;4.108;2023-04-03T05:01:51;13.47;;;7.53;;
19434;SDS011;9853;50.848;4.108;2023-04-03T05:03:55;14.43;;;7.73;;
19434;SDS011;9853;50.848;4.108;2023-04-03T05:06:08;12.23;;;7.50;;
19434;SDS011;9853;50.848;4.108;2023-04-03T05:09:08;18.33;;;7.50;;
19434;SDS011;9853;50.848;4.108;2023-04-03T05:11:41;15.47;;;8.57;;
19434;SDS011;9853;50.848;4.108;2023-04-03T05:14:11;14.57;;;7.53;;
19434;SDS011;9853;50.848;4.108;2023-04-03T05:16:28;15.63;;;7.93;;
19434;SDS011;9853;50.848;4.108;2023-04-03T05:21:23;12.70;;;8.00;;
19434;SDS011;9853;50.848;4.108;2023-04-03T05:23:48;15.97;;;7.70;;
19434;SDS011;9853;50.848;4.108;2023-04-03T05:26:12;14.67;;;8.40;;
19434;SDS011;9853;50.848;4.108;2023-04-03T05:28:22;14.43;;;8.37;;
19434;SDS011;9853;50.848;4.108;2023-04-03T05:30:53;14.97;;;8.50;;
19434;SDS011;9853;50.848;4.108;2023-04-03T05:33:25;19.07;;;9.20;;
19434;SDS011;9853;50.848;4.108;2023-04-03T05:42:18;15.53;;;9.63;;
19434;SDS011;9853;50.848;4.108;2023-04-03T05:44:52;18.37;;;9.70;;
19434;SDS011;9853;50.848;4.108;2023-04-03T05:47:06;18.60;;;9.40;;
19434;SDS011;9853;50.848;4.108;2023-04-03T05:49:23;18.33;;;9.47;;
19434;SDS011;9853;50.848;4.108;2023-04-03T05:51:33;14.23;;;10.10;;
19434;SDS011;9853;50.848;4.108;2023-04-03T05:54:12;20.20;;;9.97;;
19434;SDS011;9853;50.848;4.108;2023-04-03T05:57:11;17.77;;;9.97;;
19434;SDS011;9853;50.848;4.108;2023-04-03T05:59:35;16.93;;;9.23;;
19434;SDS011;9853;50.848;4.108;2023-04-03T06:04:49;14.77;;;9.20;;
19434;SDS011;9853;50.848;4.108;2023-04-03T06:07:15;22.33;;;10.10;;
19434;SDS011;9853;50.848;4.108;2023-04-03T06:09:25;16.40;;;9.70;;
19434;SDS011;9853;50.848;4.108;2023-04-03T06:11:36;17.80;;;9.90;;
19434;SDS011;9853;50.848;4.108;2023-04-03T06:14:03;18.67;;;10.47;;
19434;SDS011;9853;50.848;4.108;2023-04-03T06:16:20;19.80;;;10.50;;
19434;SDS011;9853;50.848;4.108;2023-04-03T06:18:27;19.43;;;10.43;;
19434;SDS011;9853;50.848;4.108;2023-04-03T06:20:37;15.13;;;10.17;;
19434;SDS011;9853;50.848;4.108;2023-04-03T06:22:52;18.83;;;10.13;;
19434;SDS011;9853;50.848;4.108;2023-04-03T06:24:59;16.17;;;10.33;;
19434;SDS011;9853;50.848;4.108;2023-04-03T06:27:11;17.23;;;9.63;;
19434;SDS011;9853;50.848;4.108;2023-04-03T06:29:21;19.47;;;10.80;;
19434;SDS011;9853;50.848;4.108;2023-04-03T06:31:25;16.07;;;10.50;;
19434;SDS011;9853;50.848;4.108;2023-04-03T06:33:29;15.93;;;10.73;;
19434;SDS011;9853;50.848;4.108;2023-04-03T06:35:30;20.67;;;10.97;;
19434;SDS011;9853;50.848;4.108;2023-04-03T06:37:45;20.13;;;10.90;;
19434;SDS011;9853;50.848;4.108;2023-04-03T06:39:54;17.57;;;10.43;;
19434;SDS011;9853;50.848;4.108;2023-04-03T06:41:55;21.00;;;10.93;;
19434;SDS011;9853;50.848;4.108;2023-04-03T06:44:27;18.43;;;10.67;;
19434;SDS011;9853;50.848;4.108;2023-04-03T06:46:31;18.60;;;10.90;;
19434;SDS011;9853;50.848;4.108;2023-04-03T06:48:49;19.83;;;11.83;;
19434;SDS011;9853;50.848;4.108;2023-04-03T06:50:53;15.23;;;10.80;;
19434;SDS011;9853;50.848;4.108;2023-04-03T06:52:56;13.93;;;9.50;;
19434;SDS011;9853;50.848;4.108;2023-04-03T06:55:25;21.77;;;10.00;;
19434;SDS011;9853;50.848;4.108;2023-04-03T06:57:34;16.00;;;10.33;;
19434;SDS011;9853;50.848;4.108;2023-04-03T06:59:37;17.03;;;9.83;;
19434;SDS011;9853;50.848;4.108;2023-04-03T07:01:41;21.60;;;10.40;;
19434;SDS011;9853;50.848;4.108;2023-04-03T07:03:43;18.17;;;10.17;;
19434;SDS011;9853;50.848;4.108;2023-04-03T07:05:48;17.37;;;9.73;;
19434;SDS011;9853;50.848;4.108;2023-04-03T07:07:54;14.97;;;9.63;;
19434;SDS011;9853;50.848;4.108;2023-04-03T07:10:01;16.90;;;10.60;;
19434;SDS011;9853;50.848;4.108;2023-04-03T07:12:49;17.97;;;9.90;;
19434;SDS011;9853;50.848;4.108;2023-04-03T07:15:15;15.67;;;9.40;;
19434;SDS011;9853;50.848;4.108;2023-04-03T07:20:09;18.17;;;7.40;;
19434;SDS011;9853;50.848;4.108;2023-04-03T07:24:51;14.67;;;6.87;;
19434;SDS011;9853;50.848;4.108;2023-04-03T07:27:28;10.70;;;6.30;;
19434;SDS011;9853;50.848;4.108;2023-04-03T07:29:39;13.90;;;6.43;;
19434;SDS011;9853;50.848;4.108;2023-04-03T07:31:49;14.03;;;6.13;;
19434;SDS011;9853;50.848;4.108;2023-04-03T07:33:50;12.03;;;6.33;;
19434;SDS011;9853;50.848;4.108;2023-04-03T07:36:00;12.60;;;5.83;;
19434;SDS011;9853;50.848;4.108;2023-04-03T07:38:04;11.77;;;6.23;;
19434;SDS011;9853;50.848;4.108;2023-04-03T07:40:53;9.63;;;6.00;;
19434;SDS011;9853;50.848;4.108;2023-04-03T07:43:08;11.40;;;5.90;;
19434;SDS011;9853;50.848;4.108;2023-04-03T07:46:07;8.00;;;5.20;;
19434;SDS011;9853;50.848;4.108;2023-04-03T07:48:15;7.18;;;4.88;;
19434;SDS011;9853;50.848;4.108;2023-04-03T07:50:23;13.63;;;5.28;;
19434;SDS011;9853;50.848;4.108;2023-04-03T07:52:24;7.68;;;4.82;;
19434;SDS011;9853;50.848;4.108;2023-04-03T07:54:31;11.02;;;4.88;;
19434;SDS011;9853;50.848;4.108;2023-04-03T07:56:32;10.38;;;4.90;;
19434;SDS011;9853;50.848;4.108;2023-04-03T08:01:10;7.20;;;4.65;;
19434;SDS011;9853;50.848;4.108;2023-04-03T08:03:32;9.23;;;4.80;;
19434;SDS011;9853;50.848;4.108;2023-04-03T08:05:42;13.27;;;5.13;;
19434;SDS011;9853;50.848;4.108;2023-04-03T08:07:52;8.02;;;4.70;;
19434;SDS011;9853;50.848;4.108;2023-04-03T08:10:19;8.80;;;4.70;;
19434;SDS011;9853;50.848;4.108;2023-04-03T08:12:20;9.63;;;4.70;;
19434;SDS011;9853;50.848;4.108;2023-04-03T08:14:31;11.32;;;4.45;;
19434;SDS011;9853;50.848;4.108;2023-04-03T08:16:38;7.65;;;4.07;;
19434;SDS011;9853;50.848;4.108;2023-04-03T08:21:56;6.93;;;3.70;;
19434;SDS011;9853;50.848;4.108;2023-04-03T08:24:28;6.22;;;3.58;;
19434;SDS011;9853;50.848;4.108;2023-04-03T08:26:37;10.15;;;4.28;;
19434;SDS011;9853;50.848;4.108;2023-04-03T08:28:38;11.25;;;3.55;;
19434;SDS011;9853;50.848;4.108;2023-04-03T08:30:48;6.72;;;3.30;;
19434;SDS011;9853;50.848;4.108;2023-04-03T08:32:52;10.10;;;3.85;;
19434;SDS011;9853;50.848;4.108;2023-04-03T08:35:03;8.68;;;4.30;;
19434;SDS011;9853;50.848;4.108;2023-04-03T08:37:05;7.22;;;3.67;;
19434;SDS011;9853;50.848;4.108;2023-04-03T08:39:09;10.13;;;4.05;;
19434;SDS011;9853;50.848;4.108;2023-04-03T08:49:28;9.80;;;3.72;;
19434;SDS011;9853;50.848;4.108;2023-04-03T08:51:51;6.43;;;3.80;;
19434;SDS011;9853;50.848;4.108;2023-04-03T08:54:24;7.50;;;3.50;;
19434;SDS011;9853;50.848;4.108;2023-04-03T08:56:54;6.93;;;3.40;;
19434;SDS011;9853;50.848;4.108;2023-04-03T08:59:05;8.57;;;3.60;;
19434;SDS011;9853;50.848;4.108;2023-04-03T09:01:30;7.18;;;3.67;;
19434;SDS011;9853;50.848;4.108;2023-04-03T09:03:50;9.02;;;3.90;;
19434;SDS011;9853;50.848;4.108;2023-04-03T09:06:27;7.50;;;3.35;;
19434;SDS011;9853;50.848;4.108;2023-04-03T09:14:36;13.00;;;3.65;;
19434;SDS011;9853;50.848;4.108;2023-04-03T09:16:57;8.30;;;3.28;;
19434;SDS011;9853;50.848;4.108;2023-04-03T09:21:38;6.65;;;3.05;;
19434;SDS011;9853;50.848;4.108;2023-04-03T09:24:33;7.07;;;2.80;;
19434;SDS011;9853;50.848;4.108;2023-04-03T09:30:16;7.88;;;2.72;;
19434;SDS011;9853;50.848;4.108;2023-04-03T09:32:48;6.72;;;2.28;;
19434;SDS011;9853;50.848;4.108;2023-04-03T09:38:45;7.47;;;2.58;;
19434;SDS011;9853;50.848;4.108;2023-04-03T09:41:06;7.80;;;2.70;;
19434;SDS011;9853;50.848;4.108;2023-04-03T09:48:37;6.28;;;2.22;;
19434;SDS011;9853;50.848;4.108;2023-04-03T09:56:42;6.45;;;1.98;;
19434;SDS011;9853;50.848;4.108;2023-04-03T10:16:12;4.13;;;1.83;;
19434;SDS011;9853;50.848;4.108;2023-04-03T10:24:33;4.77;;;1.50;;
19434;SDS011;9853;50.848;4.108;2023-04-03T10:27:16;7.00;;;1.88;;
19434;SDS011;9853;50.848;4.108;2023-04-03T10:34:45;4.10;;;1.90;;
19434;SDS011;9853;50.848;4.108;2023-04-03T10:39:59;5.68;;;1.88;;
19434;SDS011;9853;50.848;4.108;2023-04-03T10:42:35;4.20;;;1.67;;
19434;SDS011;9853;50.848;4.108;2023-04-03T10:45:15;4.73;;;1.60;;
19434;SDS011;9853;50.848;4.108;2023-04-03T10:49:56;5.20;;;1.57;;
19434;SDS011;9853;50.848;4.108;2023-04-03T10:57:37;4.18;;;1.50;;
19434;SDS011;9853;50.848;4.108;2023-04-03T10:59:43;4.18;;;1.30;;
19434;SDS011;9853;50.848;4.108;2023-04-03T11:07:26;6.20;;;1.35;;
19434;SDS011;9853;50.848;4.108;2023-04-03T11:09:48;4.10;;;1.33;;
19434;SDS011;9853;50.848;4.108;2023-04-03T11:15:13;4.53;;;1.40;;
19434;SDS011;9853;50.848;4.108;2023-04-03T11:17:33;5.47;;;1.40;;
19434;SDS011;9853;50.848;4.108;2023-04-03T11:22:47;4.43;;;1.42;;
19434;SDS011;9853;50.848;4.108;2023-04-03T11:25:36;7.83;;;1.50;;
19434;SDS011;9853;50.848;4.108;2023-04-03T11:27:47;5.13;;;1.50;;
19434;SDS011;9853;50.848;4.108;2023-04-03T11:29:57;4.60;;;1.30;;
19434;SDS011;9853;50.848;4.108;2023-04-03T11:32:54;4.30;;;1.33;;
19434;SDS011;9853;50.848;4.108;2023-04-03T11:35:23;4.75;;;1.40;;
19434;SDS011;9853;50.848;4.108;2023-04-03T11:38:13;5.05;;;1.60;;
19434;SDS011;9853;50.848;4.108;2023-04-03T11:40:36;6.47;;;1.20;;
19434;SDS011;9853;50.848;4.108;2023-04-03T11:43:24;8.07;;;1.45;;
19434;SDS011;9853;50.848;4.108;2023-04-03T11:52:58;4.80;;;1.20;;
19434;SDS011;9853;50.848;4.108;2023-04-03T11:57:47;5.13;;;1.50;;
19434;SDS011;9853;50.848;4.108;2023-04-03T12:02:43;2.13;;;1.00;;
19434;SDS011;9853;50.848;4.108;2023-04-03T12:05:31;5.35;;;1.33;;
19434;SDS011;9853;50.848;4.108;2023-04-03T12:10:18;5.88;;;1.42;;
19434;SDS011;9853;50.848;4.108;2023-04-03T12:12:33;9.23;;;1.90;;
19434;SDS011;9853;50.848;4.108;2023-04-03T12:15:26;5.05;;;1.30;;
19434;SDS011;9853;50.848;4.108;2023-04-03T12:17:59;3.90;;;1.30;;
19434;SDS011;9853;50.848;4.108;2023-04-03T12:20:52;5.10;;;1.38;;
19434;SDS011;9853;50.848;4.108;2023-04-03T12:23:27;8.35;;;1.27;;
19434;SDS011;9853;50.848;4.108;2023-04-03T12:25:48;7.63;;;1.75;;
19434;SDS011;9853;50.848;4.108;2023-04-03T12:27:51;3.92;;;1.05;;
19434;SDS011;9853;50.848;4.108;2023-04-03T12:30:12;4.25;;;1.20;;
19434;SDS011;9853;50.848;4.108;2023-04-03T12:32:45;7.15;;;1.23;;
19434;SDS011;9853;50.848;4.108;2023-04-03T12:39:52;6.05;;;1.48;;
19434;SDS011;9853;50.848;4.108;2023-04-03T12:46:52;2.90;;;1.20;;
19434;SDS011;9853;50.848;4.108;2023-04-03T12:48:54;3.83;;;1.10;;
19434;SDS011;9853;50.848;4.108;2023-04-03T12:51:01;5.03;;;1.30;;
19434;SDS011;9853;50.848;4.108;2023-04-03T12:53:10;4.50;;;1.30;;
19434;SDS011;9853;50.848;4.108;2023-04-03T12:55:21;5.57;;;1.30;;
19434;SDS011;9853;50.848;4.108;2023-04-03T12:57:36;5.95;;;1.40;;
19434;SDS011;9853;50.848;4.108;2023-04-03T12:59:40;3.08;;;1.08;;
19434;SDS011;9853;50.848;4.108;2023-04-03T13:01:52;4.07;;;1.25;;
19434;SDS011;9853;50.848;4.108;2023-04-03T13:04:03;2.28;;;0.90;;
19434;SDS011;9853;50.848;4.108;2023-04-03T13:06:04;2.20;;;1.13;;
19434;SDS011;9853;50.848;4.108;2023-04-03T13:08:08;3.47;;;1.33;;
19434;SDS011;9853;50.848;4.108;2023-04-03T13:10:20;4.47;;;1.10;;
19434;SDS011;9853;50.848;4.108;2023-04-03T13:12:21;4.45;;;1.10;;
19434;SDS011;9853;50.848;4.108;2023-04-03T13:14:27;4.53;;;1.27;;
19434;SDS011;9853;50.848;4.108;2023-04-03T13:16:29;5.43;;;1.25;;
19434;SDS011;9853;50.848;4.108;2023-04-03T13:18:31;4.05;;;1.25;;
19434;SDS011;9853;50.848;4.108;2023-04-03T13:20:35;4.97;;;1.08;;
19434;SDS011;9853;50.848;4.108;2023-04-03T13:22:39;2.50;;;1.00;;
19434;SDS011;9853;50.848;4.108;2023-04-03T13:24:51;4.20;;;1.17;;
19434;SDS011;9853;50.848;4.108;2023-04-03T13:26:53;3.55;;;0.90;;
19434;SDS011;9853;50.848;4.108;2023-04-03T13:28:59;3.55;;;1.10;;
19434;SDS011;9853;50.848;4.108;2023-04-03T13:31:34;4.20;;;1.17;;
19434;SDS011;9853;50.848;4.108;2023-04-03T13:33:41;5.85;;;1.40;;
19434;SDS011;9853;50.848;4.108;2023-04-03T13:40:19;2.53;;;0.70;;
19434;SDS011;9853;50.848;4.108;2023-04-03T13:42:28;2.05;;;1.02;;
19434;SDS011;9853;50.848;4.108;2023-04-03T13:44:34;2.20;;;0.88;;
19434;SDS011;9853;50.848;4.108;2023-04-03T13:46:39;8.13;;;1.35;;
19434;SDS011;9853;50.848;4.108;2023-04-03T13:48:44;2.13;;;1.05;;
19434;SDS011;9853;50.848;4.108;2023-04-03T13:50:53;6.22;;;1.42;;
19434;SDS011;9853;50.848;4.108;2023-04-03T13:53:10;3.38;;;1.05;;
19434;SDS011;9853;50.848;4.108;2023-04-03T13:55:23;3.63;;;1.08;;
19434;SDS011;9853;50.848;4.108;2023-04-03T13:57:30;3.67;;;1.00;;
19434;SDS011;9853;50.848;4.108;2023-04-03T13:59:34;3.72;;;1.10;;
19434;SDS011;9853;50.848;4.108;2023-04-03T14:01:46;2.50;;;1.00;;
19434;SDS011;9853;50.848;4.108;2023-04-03T14:06:42;3.88;;;1.27;;
19434;SDS011;9853;50.848;4.108;2023-04-03T14:08:51;3.90;;;1.15;;
19434;SDS011;9853;50.848;4.108;2023-04-03T14:10:52;3.67;;;1.25;;
19434;SDS011;9853;50.848;4.108;2023-04-03T14:12:56;3.05;;;1.10;;
19434;SDS011;9853;50.848;4.108;2023-04-03T14:14:58;1.92;;;0.95;;
19434;SDS011;9853;50.848;4.108;2023-04-03T14:17:10;3.30;;;1.27;;
19434;SDS011;9853;50.848;4.108;2023-04-03T14:19:22;3.78;;;1.00;;
19434;SDS011;9853;50.848;4.108;2023-04-03T14:21:28;3.58;;;1.00;;
19434;SDS011;9853;50.848;4.108;2023-04-03T14:23:29;4.20;;;1.02;;
19434;SDS011;9853;50.848;4.108;2023-04-03T14:28:14;1.98;;;0.98;;
19434;SDS011;9853;50.848;4.108;2023-04-03T14:30:29;3.63;;;0.77;;
19434;SDS011;9853;50.848;4.108;2023-04-03T14:32:34;4.57;;;1.10;;
19434;SDS011;9853;50.848;4.108;2023-04-03T14:34:35;6.68;;;1.52;;
19434;SDS011;9853;50.848;4.108;2023-04-03T14:36:36;2.80;;;1.38;;
19434;SDS011;9853;50.848;4.108;2023-04-03T14:38:38;1.95;;;0.90;;
19434;SDS011;9853;50.848;4.108;2023-04-03T14:40:39;3.03;;;1.30;;
19434;SDS011;9853;50.848;4.108;2023-04-03T14:42:41;5.40;;;1.20;;
19434;SDS011;9853;50.848;4.108;2023-04-03T14:44:42;5.13;;;1.63;;
19434;SDS011;9853;50.848;4.108;2023-04-03T14:46:43;3.97;;;1.30;;
19434;SDS011;9853;50.848;4.108;2023-04-03T14:48:45;3.15;;;1.30;;
19434;SDS011;9853;50.848;4.108;2023-04-03T14:50:46;3.72;;;1.50;;
19434;SDS011;9853;50.848;4.108;2023-04-03T14:52:48;5.10;;;1.40;;
19434;SDS011;9853;50.848;4.108;2023-04-03T14:54:51;3.75;;;1.42;;
19434;SDS011;9853;50.848;4.108;2023-04-03T14:56:56;3.88;;;1.30;;
19434;SDS011;9853;50.848;4.108;2023-04-03T14:58:59;3.58;;;1.10;;
19434;SDS011;9853;50.848;4.108;2023-04-03T15:01:01;8.55;;;1.60;;
19434;SDS011;9853;50.848;4.108;2023-04-03T15:03:02;3.25;;;1.10;;
19434;SDS011;9853;50.848;4.108;2023-04-03T15:05:04;3.20;;;1.13;;
19434;SDS011;9853;50.848;4.108;2023-04-03T15:07:08;6.60;;;1.30;;
19434;SDS011;9853;50.848;4.108;2023-04-03T15:09:28;3.30;;;1.02;;
19434;SDS011;9853;50.848;4.108;2023-04-03T15:11:29;6.53;;;1.23;;
19434;SDS011;9853;50.848;4.108;2023-04-03T15:13:29;3.22;;;1.20;;
19434;SDS011;9853;50.848;4.108;2023-04-03T15:15:30;5.13;;;1.05;;
19434;SDS011;9853;50.848;4.108;2023-04-03T15:17:31;4.72;;;1.58;;
19434;SDS011;9853;50.848;4.108;2023-04-03T15:19:33;5.03;;;1.38;;
19434;SDS011;9853;50.848;4.108;2023-04-03T15:21:37;3.33;;;1.08;;
19434;SDS011;9853;50.848;4.108;2023-04-03T15:23:38;3.85;;;1.40;;
19434;SDS011;9853;50.848;4.108;2023-04-03T15:25:39;2.25;;;0.80;;
19434;SDS011;9853;50.848;4.108;2023-04-03T15:27:41;3.15;;;0.98;;
19434;SDS011;9853;50.848;4.108;2023-04-03T15:29:43;4.25;;;1.00;;
19434;SDS011;9853;50.848;4.108;2023-04-03T15:31:44;4.25;;;0.88;;
19434;SDS011;9853;50.848;4.108;2023-04-03T15:33:45;3.70;;;1.02;;
19434;SDS011;9853;50.848;4.108;2023-04-03T15:35:45;2.33;;;0.85;;